Time;durP1;ratioP1;P1;durP2;ratioP2;P2;SDS_P1;SDS_P2;PMS_P1;PMS_P2;Temp;Humidity;BMP_temperature;BMP_pressure;BME280_temperature;BME280_humidity;BME280_pressure;Samples;Min_cycle;Max_cycle;Signal;HPM_P1;HPM_P2
2021/09/13 00:02:19;;;;;;;13.45;8.80;;;16.30;84.70;;;;;;5040283;28;20077;-70
2021/09/13 00:04:46;;;;;;;12.90;9.40;;;16.30;84.60;;;;;;5041485;28;20480;-71
2021/09/13 00:07:12;;;;;;;13.13;9.38;;;16.20;84.80;;;;;;5040971;28;20132;-70
2021/09/13 00:09:39;;;;;;;14.68;9.30;;;16.20;84.90;;;;;;5041264;28;20136;-71
2021/09/13 00:12:07;;;;;;;9.93;8.60;;;16.20;85.20;;;;;;5041464;28;20049;-71
2021/09/13 00:14:33;;;;;;;11.65;8.90;;;16.20;85.20;;;;;;5041868;28;20053;-71
2021/09/13 00:17:00;;;;;;;12.25;9.07;;;16.20;85.60;;;;;;5041096;28;20152;-70
2021/09/13 00:19:27;;;;;;;10.88;8.27;;;16.20;85.60;;;;;;5040169;28;20126;-71
2021/09/13 00:21:53;;;;;;;10.50;8.43;;;16.20;85.50;;;;;;5040798;28;20436;-70
2021/09/13 00:24:20;;;;;;;11.45;8.00;;;16.20;85.70;;;;;;5041653;28;20140;-70
2021/09/13 00:26:47;;;;;;;11.00;8.52;;;16.10;85.60;;;;;;5041613;28;20053;-70
2021/09/13 00:29:14;;;;;;;10.32;7.72;;;16.10;85.70;;;;;;5041050;28;20084;-71
2021/09/13 00:31:40;;;;;;;9.05;7.43;;;16.10;85.70;;;;;;5040336;28;20099;-71
2021/09/13 00:34:07;;;;;;;10.77;7.97;;;16.00;85.90;;;;;;5043177;28;20055;-70
2021/09/13 00:36:34;;;;;;;10.40;8.73;;;16.00;85.90;;;;;;5044038;28;20080;-70
2021/09/13 00:39:01;;;;;;;11.35;9.10;;;16.00;86.30;;;;;;5044159;28;20045;-71
2021/09/13 00:41:27;;;;;;;9.98;7.63;;;15.90;86.30;;;;;;5044818;28;20131;-70
2021/09/13 00:43:54;;;;;;;12.40;7.93;;;15.90;86.40;;;;;;5043995;28;20109;-70
2021/09/13 00:46:21;;;;;;;10.00;8.25;;;15.80;86.40;;;;;;5042930;28;20049;-69
2021/09/13 00:48:48;;;;;;;12.50;8.95;;;15.90;86.40;;;;;;5043597;28;20563;-70
2021/09/13 00:51:15;;;;;;;10.23;8.00;;;15.80;86.50;;;;;;5044987;28;20452;-70
2021/09/13 00:53:41;;;;;;;11.10;8.38;;;15.80;86.70;;;;;;5044580;28;20491;-70
2021/09/13 00:56:08;;;;;;;9.10;7.68;;;15.70;86.90;;;;;;5043085;28;20085;-70
2021/09/13 00:58:35;;;;;;;11.13;8.80;;;15.70;87.00;;;;;;5042373;28;20056;-71
2021/09/13 01:01:02;;;;;;;10.32;7.88;;;15.70;87.00;;;;;;5041822;28;20075;-71
2021/09/13 01:03:29;;;;;;;9.77;7.85;;;15.70;87.20;;;;;;5044530;28;20049;-70
2021/09/13 01:05:56;;;;;;;9.15;8.15;;;15.60;87.20;;;;;;5043484;28;20049;-70
2021/09/13 01:08:23;;;;;;;12.43;7.82;;;15.60;87.30;;;;;;5042757;28;20076;-70
2021/09/13 01:10:50;;;;;;;11.45;8.35;;;15.50;87.20;;;;;;5043482;28;20083;-70
2021/09/13 01:13:17;;;;;;;11.07;8.25;;;15.50;87.50;;;;;;5042911;28;20588;-70
2021/09/13 01:15:43;;;;;;;8.90;8.00;;;15.50;87.70;;;;;;5044141;28;20132;-70
2021/09/13 01:18:10;;;;;;;10.68;8.55;;;15.40;87.90;;;;;;5043503;28;20435;-70
2021/09/13 01:20:37;;;;;;;10.93;8.15;;;15.40;88.20;;;;;;5043884;28;20076;-70
2021/09/13 01:23:08;;;;;;;9.23;8.15;;;15.40;88.70;;;;;;5043042;28;20084;-70
2021/09/13 01:25:35;;;;;;;8.40;7.18;;;15.40;89.30;;;;;;5026729;28;20084;-70
2021/09/13 01:28:02;;;;;;;9.68;8.05;;;15.40;88.70;;;;;;5043173;28;20140;-70
2021/09/13 01:30:29;;;;;;;8.60;6.82;;;15.40;88.40;;;;;;5041027;28;20132;-70
2021/09/13 01:32:56;;;;;;;14.90;7.63;;;15.40;88.70;;;;;;5043829;28;20119;-70
2021/09/13 01:35:23;;;;;;;10.13;6.18;;;15.40;88.20;;;;;;5044801;28;20110;-70
2021/09/13 01:37:50;;;;;;;10.60;6.03;;;15.40;88.60;;;;;;5045696;28;20115;-70
2021/09/13 01:40:17;;;;;;;10.88;6.60;;;15.30;88.80;;;;;;5043719;28;20099;-70
2021/09/13 01:42:44;;;;;;;8.88;6.50;;;15.30;88.80;;;;;;5044810;28;20076;-70
2021/09/13 01:45:11;;;;;;;8.02;6.70;;;15.30;88.60;;;;;;5044444;28;20091;-71
2021/09/13 01:47:37;;;;;;;10.25;7.40;;;15.30;89.20;;;;;;5044183;28;20136;-71
2021/09/13 01:50:04;;;;;;;8.18;6.88;;;15.30;88.90;;;;;;5044313;28;20132;-71
2021/09/13 01:52:31;;;;;;;9.20;7.00;;;15.30;88.80;;;;;;5045040;28;20052;-71
2021/09/13 01:54:58;;;;;;;9.80;6.60;;;15.30;89.20;;;;;;5045635;28;20135;-71
2021/09/13 01:57:25;;;;;;;11.55;7.85;;;15.30;89.10;;;;;;5026746;28;20084;-71
2021/09/13 01:59:52;;;;;;;9.90;7.25;;;15.30;88.90;;;;;;5044869;28;20045;-71
2021/09/13 02:02:18;;;;;;;7.53;6.43;;;15.30;89.40;;;;;;5043217;28;20048;-71
2021/09/13 02:04:45;;;;;;;11.27;7.55;;;15.30;89.60;;;;;;5045245;28;20112;-71
2021/09/13 02:07:12;;;;;;;8.82;6.05;;;15.30;89.70;;;;;;5044700;28;20128;-71
2021/09/13 02:09:39;;;;;;;12.10;6.95;;;15.30;89.50;;;;;;5045504;28;20195;-71
2021/09/13 02:12:06;;;;;;;11.43;6.35;;;15.30;89.50;;;;;;5044824;28;20095;-71
2021/09/13 02:14:32;;;;;;;8.20;6.20;;;15.30;89.30;;;;;;5045528;28;20092;-71
2021/09/13 02:16:59;;;;;;;6.97;5.95;;;15.30;89.20;;;;;;5044190;28;20142;-71
2021/09/13 02:19:26;;;;;;;7.07;5.07;;;15.30;89.20;;;;;;5044353;28;20063;-71
2021/09/13 02:21:53;;;;;;;8.63;4.80;;;15.30;89.60;;;;;;5044030;28;20045;-71
2021/09/13 02:24:19;;;;;;;5.80;4.38;;;15.30;89.20;;;;;;5044963;28;20084;-71
2021/09/13 02:26:46;;;;;;;7.15;4.75;;;15.30;89.50;;;;;;5044087;28;20127;-71
2021/09/13 02:29:13;;;;;;;9.85;4.80;;;15.30;89.60;;;;;;5044937;28;20099;-71
2021/09/13 02:31:40;;;;;;;11.50;5.57;;;15.20;89.60;;;;;;5044102;28;20149;-71
2021/09/13 02:34:06;;;;;;;5.20;3.80;;;15.20;89.70;;;;;;5043325;28;20057;-71
2021/09/13 02:36:33;;;;;;;10.00;4.30;;;15.20;89.90;;;;;;5044332;28;20049;-71
2021/09/13 02:39:00;;;;;;;8.15;3.78;;;15.20;89.40;;;;;;5043856;28;20103;-71
2021/09/13 02:41:29;;;;;;;6.78;3.85;;;15.20;89.70;;;;;;5044504;28;20060;-71
2021/09/13 02:43:56;;;;;;;10.60;4.25;;;15.20;89.30;;;;;;5024667;28;20560;-71
2021/09/13 02:46:23;;;;;;;5.57;3.70;;;15.20;89.70;;;;;;5024267;28;20148;-71
2021/09/13 02:48:50;;;;;;;4.85;3.25;;;15.10;89.50;;;;;;5024440;28;20554;-71
2021/09/13 02:51:16;;;;;;;7.18;3.47;;;15.10;89.90;;;;;;5043333;28;20646;-71
2021/09/13 02:53:43;;;;;;;13.55;3.53;;;15.00;89.80;;;;;;5044255;28;20156;-72
2021/09/13 02:56:10;;;;;;;5.85;3.50;;;15.00;89.90;;;;;;5044322;28;20055;-70
2021/09/13 02:58:37;;;;;;;6.60;4.03;;;15.00;90.10;;;;;;5026373;28;20061;-71
2021/09/13 03:01:03;;;;;;;7.32;3.60;;;14.90;90.00;;;;;;5043218;28;20745;-71
2021/09/13 03:03:30;;;;;;;10.65;3.45;;;15.00;90.00;;;;;;5042450;28;20424;-71
2021/09/13 03:05:58;;;;;;;7.82;3.53;;;14.90;90.00;;;;;;5044767;28;20095;-71
2021/09/13 03:08:24;;;;;;;7.95;3.65;;;14.90;90.00;;;;;;5043823;28;20147;-70
2021/09/13 03:10:51;;;;;;;8.75;3.08;;;14.90;90.60;;;;;;5043703;28;20096;-71
2021/09/13 03:13:18;;;;;;;7.10;3.50;;;14.90;90.30;;;;;;5043864;28;20138;-70
2021/09/13 03:15:44;;;;;;;4.03;2.65;;;14.80;90.20;;;;;;5043588;28;20080;-71
2021/09/13 03:18:11;;;;;;;8.10;3.58;;;14.80;90.20;;;;;;5044688;28;20053;-71
2021/09/13 03:20:38;;;;;;;8.10;3.38;;;14.80;90.20;;;;;;5044531;28;20136;-71
2021/09/13 03:23:05;;;;;;;7.40;3.40;;;14.80;90.40;;;;;;5045716;28;20103;-71
2021/09/13 03:25:31;;;;;;;6.00;4.00;;;14.80;90.30;;;;;;5045944;28;20124;-70
2021/09/13 03:27:58;;;;;;;6.45;3.67;;;14.80;90.40;;;;;;5044355;28;20091;-71
2021/09/13 03:30:25;;;;;;;7.68;3.63;;;14.70;90.40;;;;;;5044982;28;20111;-71
2021/09/13 03:32:52;;;;;;;8.52;3.30;;;14.70;90.30;;;;;;5045894;28;20076;-71
2021/09/13 03:35:19;;;;;;;6.90;3.55;;;14.70;90.40;;;;;;5045721;28;20107;-71
2021/09/13 03:37:45;;;;;;;9.13;3.97;;;14.70;90.30;;;;;;5045467;28;20136;-71
2021/09/13 03:40:13;;;;;;;5.10;3.47;;;14.70;90.40;;;;;;5045546;28;20083;-71
2021/09/13 03:42:40;;;;;;;8.20;3.60;;;14.70;90.40;;;;;;5043441;28;20084;-70
2021/09/13 03:45:07;;;;;;;4.63;3.28;;;14.60;90.40;;;;;;5027725;28;20108;-71
2021/09/13 03:47:34;;;;;;;6.78;4.03;;;14.70;90.60;;;;;;5045475;28;20128;-69
2021/09/13 03:50:00;;;;;;;6.57;4.00;;;14.60;90.40;;;;;;5045323;28;20484;-71
2021/09/13 03:52:27;;;;;;;10.38;3.97;;;14.60;90.50;;;;;;5044955;28;20076;-71
2021/09/13 03:54:54;;;;;;;10.70;4.90;;;14.60;90.50;;;;;;5045767;28;20098;-71
2021/09/13 03:57:21;;;;;;;9.20;4.13;;;14.60;90.50;;;;;;5044222;28;20551;-71
2021/09/13 03:59:47;;;;;;;8.35;4.00;;;14.60;90.60;;;;;;5044406;28;20087;-71
2021/09/13 04:02:15;;;;;;;6.68;3.53;;;14.50;90.50;;;;;;5042846;28;20527;-71
2021/09/13 04:04:45;;;;;;;8.57;4.47;;;14.50;90.50;;;;;;5044827;28;20111;-71
2021/09/13 04:12:09;;;;;;;6.38;4.50;;;14.50;90.80;;;;;;5047577;28;20100;-71
2021/09/13 04:14:35;;;;;;;7.57;4.03;;;14.50;90.70;;;;;;5049243;28;20072;-70
2021/09/13 04:17:02;;;;;;;10.23;5.00;;;14.50;90.70;;;;;;5047799;28;20123;-71
2021/09/13 04:19:29;;;;;;;9.15;4.40;;;14.50;90.60;;;;;;5047418;28;20144;-71
2021/09/13 04:21:56;;;;;;;10.73;4.43;;;14.40;90.60;;;;;;5048004;28;20202;-71
2021/09/13 04:24:23;;;;;;;7.30;4.45;;;14.50;90.70;;;;;;5031203;28;20637;-71
2021/09/13 04:26:49;;;;;;;12.60;5.85;;;14.40;90.70;;;;;;5048004;28;20528;-71
2021/09/13 04:29:16;;;;;;;8.25;4.78;;;14.40;90.70;;;;;;5049233;28;20080;-70
2021/09/13 04:31:43;;;;;;;9.23;5.15;;;14.40;90.70;;;;;;5048742;28;20493;-70
2021/09/13 04:34:10;;;;;;;5.45;4.15;;;14.40;90.80;;;;;;5047728;28;20096;-71
2021/09/13 04:36:37;;;;;;;5.80;3.88;;;14.30;91.00;;;;;;5048736;28;20084;-70
2021/09/13 04:39:03;;;;;;;6.78;4.40;;;14.30;90.90;;;;;;5047531;28;20115;-70
2021/09/13 04:41:30;;;;;;;8.10;4.90;;;14.30;90.90;;;;;;5030327;28;20140;-71
2021/09/13 04:43:57;;;;;;;6.90;4.38;;;14.30;90.80;;;;;;5048240;28;20041;-70
2021/09/13 04:46:24;;;;;;;6.30;4.78;;;14.30;91.00;;;;;;5048492;28;20084;-71
2021/09/13 04:48:52;;;;;;;10.70;5.00;;;14.30;91.00;;;;;;5035946;28;20235;-71
2021/09/13 04:51:19;;;;;;;10.25;4.60;;;14.30;91.00;;;;;;5046339;28;20072;-71
2021/09/13 04:53:45;;;;;;;10.38;4.72;;;14.30;91.00;;;;;;5045918;28;20045;-71
2021/09/13 04:56:12;;;;;;;9.57;5.13;;;14.30;90.90;;;;;;5046029;28;20057;-71
2021/09/13 04:58:39;;;;;;;8.23;4.40;;;14.30;91.00;;;;;;5046282;28;20670;-71
2021/09/13 05:01:08;;;;;;;8.80;4.80;;;14.40;90.90;;;;;;5043627;28;20072;-70
2021/09/13 05:03:36;;;;;;;6.68;4.40;;;14.30;91.00;;;;;;5042811;28;20617;-71
2021/09/13 05:06:03;;;;;;;14.05;4.40;;;14.40;91.00;;;;;;5044238;28;20048;-70
2021/09/13 05:08:30;;;;;;;8.32;4.43;;;14.40;91.00;;;;;;5042348;28;20053;-71
2021/09/13 05:10:57;;;;;;;5.93;4.00;;;14.40;91.00;;;;;;5021181;28;20068;-70
2021/09/13 05:13:24;;;;;;;8.02;5.47;;;14.40;91.10;;;;;;5036792;28;20576;-71
2021/09/13 05:15:50;;;;;;;12.73;5.55;;;14.40;91.00;;;;;;5043726;28;20877;-71
2021/09/13 05:18:17;;;;;;;13.55;5.38;;;14.40;91.00;;;;;;5043807;28;20183;-71
2021/09/13 05:20:44;;;;;;;10.13;6.63;;;14.40;91.00;;;;;;5033645;28;20555;-71
2021/09/13 05:23:11;;;;;;;9.45;5.20;;;14.40;91.10;;;;;;5035863;28;20076;-71
2021/09/13 05:25:37;;;;;;;10.73;6.82;;;14.50;91.20;;;;;;5036368;28;20457;-70
2021/09/13 05:28:04;;;;;;;12.45;6.93;;;14.50;91.10;;;;;;5029801;28;20554;-70
2021/09/13 05:30:31;;;;;;;11.18;5.20;;;14.50;91.10;;;;;;5032992;28;20136;-70
2021/09/13 05:32:58;;;;;;;11.07;5.55;;;14.50;91.00;;;;;;5030226;28;20049;-70
2021/09/13 05:35:24;;;;;;;9.13;5.60;;;14.50;91.00;;;;;;5033921;28;20479;-71
2021/09/13 05:37:51;;;;;;;8.40;4.70;;;14.50;90.90;;;;;;5031770;28;20065;-71
2021/09/13 05:40:19;;;;;;;11.48;4.97;;;14.50;90.90;;;;;;5036046;28;20063;-70
2021/09/13 05:42:45;;;;;;;9.77;4.57;;;14.50;90.70;;;;;;5032940;28;20642;-71
2021/09/13 05:45:12;;;;;;;9.10;4.10;;;14.50;90.70;;;;;;5031317;28;20155;-70
2021/09/13 05:47:39;;;;;;;7.05;4.40;;;14.50;90.80;;;;;;5036746;28;20452;-70
2021/09/13 05:50:06;;;;;;;9.05;3.85;;;14.50;90.70;;;;;;5032983;28;20555;-70
2021/09/13 05:52:33;;;;;;;11.02;4.40;;;14.50;90.80;;;;;;5038140;28;20171;-71
2021/09/13 05:55:01;;;;;;;14.48;5.60;;;14.50;90.70;;;;;;5036815;28;20126;-72
2021/09/13 05:57:28;;;;;;;12.93;4.75;;;14.50;90.70;;;;;;5034777;28;20479;-72
2021/09/13 05:59:55;;;;;;;13.50;4.82;;;14.60;90.70;;;;;;5036142;28;20479;-70
2021/09/13 06:02:22;;;;;;;11.05;4.95;;;14.50;90.60;;;;;;5038067;28;20085;-70
2021/09/13 06:04:49;;;;;;;10.10;3.92;;;14.50;90.70;;;;;;5037335;28;20107;-70
2021/09/13 06:07:18;;;;;;;11.32;3.90;;;14.60;90.70;;;;;;5037229;28;20042;-69
2021/09/13 06:09:44;;;;;;;10.25;3.65;;;14.60;90.80;;;;;;5040478;28;20106;-69
2021/09/13 06:12:14;;;;;;;11.48;3.55;;;14.60;90.70;;;;;;5032917;28;20049;-68
2021/09/13 06:14:42;;;;;;;6.90;3.30;;;14.70;90.60;;;;;;5036358;28;20508;-70
2021/09/13 06:17:09;;;;;;;8.98;3.47;;;14.80;90.60;;;;;;5028162;28;20041;-70
2021/09/13 06:19:38;;;;;;;6.07;3.30;;;14.80;90.60;;;;;;5036230;28;20515;-69
2021/09/13 06:22:05;;;;;;;7.18;3.53;;;14.80;90.40;;;;;;5020972;28;20076;-70
2021/09/13 06:24:31;;;;;;;7.70;3.60;;;14.90;90.30;;;;;;5042741;28;20072;-70
2021/09/13 06:26:58;;;;;;;7.10;3.85;;;14.90;90.30;;;;;;5042131;28;20053;-69
2021/09/13 06:29:25;;;;;;;16.00;4.45;;;14.90;90.30;;;;;;5041534;28;20448;-69
2021/09/13 06:31:52;;;;;;;7.07;3.95;;;14.90;90.30;;;;;;5041777;28;20106;-69
2021/09/13 06:34:18;;;;;;;12.57;3.92;;;14.90;90.30;;;;;;5042139;28;20087;-69
2021/09/13 06:36:46;;;;;;;9.13;4.63;;;15.00;90.20;;;;;;5041566;28;20103;-69
2021/09/13 06:39:12;;;;;;;9.93;4.10;;;15.00;90.20;;;;;;5042246;28;20064;-69
2021/09/13 06:41:39;;;;;;;8.57;4.43;;;15.00;90.10;;;;;;5041823;28;20531;-68
2021/09/13 06:44:06;;;;;;;7.35;4.45;;;15.10;90.10;;;;;;5042506;28;20080;-70
2021/09/13 06:46:41;;;;;;;11.60;4.60;;;15.20;90.00;;;;;;5041723;28;20080;-70
2021/09/13 06:49:08;;;;;;;11.18;4.55;;;15.20;90.00;;;;;;5041041;28;20086;-70
2021/09/13 06:51:35;;;;;;;9.90;4.70;;;15.20;90.00;;;;;;5042169;28;20077;-70
2021/09/13 06:54:01;;;;;;;8.55;4.35;;;15.30;90.00;;;;;;5041939;28;20535;-70
2021/09/13 06:56:28;;;;;;;13.43;4.95;;;15.30;89.80;;;;;;5041302;28;20163;-71
2021/09/13 06:58:55;;;;;;;10.02;4.68;;;15.40;89.60;;;;;;5041035;28;20124;-71
2021/09/13 07:01:22;;;;;;;10.00;4.55;;;15.50;89.60;;;;;;5038995;28;20115;-69
2021/09/13 07:03:49;;;;;;;7.43;3.78;;;15.50;89.40;;;;;;5041272;28;20047;-69
2021/09/13 07:06:16;;;;;;;9.77;5.25;;;15.60;89.90;;;;;;5040816;28;20393;-70
2021/09/13 07:08:43;;;;;;;8.00;4.15;;;15.60;89.10;;;;;;5041894;28;20080;-70
2021/09/13 07:11:10;;;;;;;8.50;3.90;;;15.60;88.90;;;;;;5041488;28;20227;-70
2021/09/13 07:13:36;;;;;;;8.95;4.13;;;15.70;88.70;;;;;;5042426;28;20049;-70
2021/09/13 07:16:06;;;;;;;6.10;3.65;;;15.80;88.70;;;;;;5041003;28;20075;-70
2021/09/13 07:18:32;;;;;;;10.38;4.25;;;15.80;88.60;;;;;;5039231;28;20175;-69
2021/09/13 07:20:59;;;;;;;5.80;3.40;;;15.80;88.40;;;;;;5032711;28;20528;-70
2021/09/13 07:23:26;;;;;;;12.88;4.38;;;15.90;88.30;;;;;;5037609;28;20065;-68
2021/09/13 07:25:53;;;;;;;13.10;5.53;;;16.00;88.10;;;;;;5041363;28;20136;-70
2021/09/13 07:28:20;;;;;;;11.30;3.83;;;16.00;87.80;;;;;;5041039;28;20923;-68
2021/09/13 07:30:47;;;;;;;9.75;4.50;;;16.00;87.80;;;;;;5040817;28;20095;-69
2021/09/13 07:33:14;;;;;;;7.00;3.65;;;16.10;87.90;;;;;;5040389;28;20076;-68
2021/09/13 07:35:41;;;;;;;9.25;3.72;;;16.20;87.60;;;;;;5029608;28;20077;-68
2021/09/13 07:38:08;;;;;;;7.93;3.35;;;16.20;87.30;;;;;;5021108;28;20489;-68
2021/09/13 07:40:34;;;;;;;7.18;3.15;;;16.30;87.10;;;;;;5039907;28;20076;-68
2021/09/13 07:43:03;;;;;;;7.93;3.42;;;16.30;87.10;;;;;;5040094;28;20417;-69
2021/09/13 07:45:30;;;;;;;5.88;3.15;;;16.40;86.80;;;;;;5033865;28;20120;-69
2021/09/13 07:47:57;;;;;;;6.13;3.03;;;16.40;87.00;;;;;;5024725;28;20091;-69
2021/09/13 07:50:23;;;;;;;4.78;3.00;;;16.50;86.60;;;;;;5036884;28;20060;-68
2021/09/13 07:52:50;;;;;;;8.35;3.28;;;16.60;86.60;;;;;;5037665;28;20535;-69
2021/09/13 07:55:17;;;;;;;9.38;3.42;;;16.70;86.40;;;;;;5035511;28;20045;-69
2021/09/13 07:57:44;;;;;;;7.90;3.20;;;16.80;86.00;;;;;;5038071;28;20083;-69
2021/09/13 08:00:14;;;;;;;10.48;5.25;;;16.90;85.40;;;;;;5037751;28;20061;-69
2021/09/13 08:02:41;;;;;;;11.80;5.95;;;17.00;85.10;;;;;;5039529;28;20049;-69
2021/09/13 08:05:11;;;;;;;5.90;3.97;;;17.10;85.10;;;;;;5040772;28;20424;-69
2021/09/13 08:07:38;;;;;;;7.30;3.70;;;17.20;85.00;;;;;;5022346;28;20103;-69
2021/09/13 08:10:05;;;;;;;12.90;4.05;;;17.30;84.40;;;;;;5032405;28;20089;-69
2021/09/13 08:12:32;;;;;;;9.50;3.88;;;17.30;84.30;;;;;;5029728;28;20127;-69
2021/09/13 08:14:59;;;;;;;7.07;3.40;;;17.30;84.20;;;;;;5037242;28;20095;-69
2021/09/13 08:17:25;;;;;;;9.38;3.25;;;17.40;84.00;;;;;;5025608;28;20112;-70
2021/09/13 08:19:52;;;;;;;6.15;2.75;;;17.50;84.00;;;;;;5029995;28;20088;-69
2021/09/13 08:22:19;;;;;;;9.48;3.03;;;17.60;83.60;;;;;;5037984;28;20091;-69
2021/09/13 08:24:46;;;;;;;5.65;2.78;;;17.70;83.40;;;;;;5034391;28;20077;-69
2021/09/13 08:27:12;;;;;;;8.10;2.67;;;17.70;83.30;;;;;;5018790;28;20088;-69
2021/09/13 08:29:39;;;;;;;8.90;2.95;;;17.80;82.80;;;;;;5027312;28;20057;-68
2021/09/13 08:32:06;;;;;;;10.18;3.35;;;17.80;82.70;;;;;;5038537;28;20056;-69
2021/09/13 08:34:33;;;;;;;11.60;3.00;;;17.90;82.80;;;;;;5039327;28;20154;-70
2021/09/13 08:37:00;;;;;;;9.43;3.08;;;18.00;82.70;;;;;;5038807;28;20734;-69
2021/09/13 08:39:26;;;;;;;5.30;2.85;;;18.00;82.10;;;;;;5036261;28;20140;-69
2021/09/13 08:41:53;;;;;;;8.20;2.60;;;18.00;81.80;;;;;;5006711;28;20161;-69
2021/09/13 08:44:20;;;;;;;8.23;2.30;;;18.00;81.70;;;;;;5033865;28;20132;-69
2021/09/13 08:46:51;;;;;;;8.15;2.90;;;18.10;81.40;;;;;;5017242;28;20054;-69
2021/09/13 08:49:34;;;;;;;6.72;2.58;;;18.10;81.30;;;;;;5036064;28;20492;-69
2021/09/13 08:52:03;;;;;;;;;;;18.20;81.50;;;;;;5038080;28;20090;-70
2021/09/13 08:54:36;;;;;;;9.40;3.72;;;18.20;80.70;;;;;;5047215;28;19964;-69
2021/09/13 08:57:05;;;;;;;10.18;3.53;;;18.30;80.80;;;;;;5031708;28;20049;-69
2021/09/13 08:59:39;;;;;;;8.68;5.47;;;18.30;80.90;;;;;;5032575;28;20128;-69
2021/09/13 09:02:06;;;;;;;9.50;3.63;;;18.30;81.30;;;;;;5036738;28;20157;-69
2021/09/13 09:04:54;;;;;;;10.07;2.47;;;18.40;80.70;;;;;;5042878;28;20046;-69
2021/09/13 09:07:23;;;;;;;5.90;1.75;;;18.50;80.60;;;;;;5038316;28;20724;-68
2021/09/13 09:10:13;;;;;;;5.03;1.42;;;18.60;78.50;;;;;;5030888;28;20547;-69
2021/09/13 09:12:58;;;;;;;5.65;1.50;;;18.70;75.50;;;;;;5030929;28;20508;-69
2021/09/13 09:15:25;;;;;;;5.90;1.70;;;18.80;74.70;;;;;;5039096;28;20053;-69
2021/09/13 09:17:53;;;;;;;9.80;2.03;;;18.80;76.50;;;;;;5026768;28;20107;-69
2021/09/13 09:20:20;;;;;;;4.43;1.38;;;18.90;76.20;;;;;;5030325;28;20141;-69
2021/09/13 09:22:47;;;;;;;5.43;1.35;;;19.10;75.50;;;;;;5029243;28;20083;-68
2021/09/13 09:25:36;;;;;;;4.85;1.52;;;19.10;73.80;;;;;;5035628;28;20144;-69
2021/09/13 09:28:05;;;;;;;4.00;1.10;;;19.20;72.10;;;;;;5030965;28;20052;-70
2021/09/13 09:30:39;;;;;;;3.85;1.33;;;19.20;72.90;;;;;;5029157;28;20063;-69
2021/09/13 09:33:07;;;;;;;5.55;1.55;;;19.30;71.50;;;;;;5025603;28;20500;-69
2021/09/13 09:35:55;;;;;;;3.13;1.23;;;19.40;71.80;;;;;;5021946;28;20131;-69
2021/09/13 09:38:41;;;;;;;3.95;1.70;;;19.50;70.50;;;;;;5035575;28;20049;-69
2021/09/13 09:41:15;;;;;;;3.63;1.13;;;19.60;68.80;;;;;;5027908;28;20504;-69
2021/09/13 09:43:56;;;;;;;4.13;1.27;;;19.70;70.40;;;;;;5024082;28;20081;-70
2021/09/13 09:46:24;;;;;;;2.47;1.10;;;19.80;69.40;;;;;;5026323;28;20057;-70
2021/09/13 09:49:02;;;;;;;4.57;1.55;;;19.90;70.20;;;;;;5016491;28;20084;-70
2021/09/13 09:51:33;;;;;;;2.17;0.90;;;20.10;67.90;;;;;;5018473;28;20857;-70
2021/09/13 09:54:09;;;;;;;5.30;1.42;;;20.20;68.40;;;;;;5031499;28;20040;-70
2021/09/13 09:56:35;;;;;;;5.40;2.45;;;20.30;67.10;;;;;;5030406;28;20100;-70
2021/09/13 09:59:04;;;;;;;5.43;2.67;;;20.30;67.50;;;;;;5022256;28;20128;-70
2021/09/13 10:01:39;;;;;;;4.38;1.38;;;20.40;67.00;;;;;;5036828;28;20132;-76
2021/09/13 10:04:19;;;;;;;6.85;2.42;;;20.60;67.60;;;;;;5007614;28;20057;-71
2021/09/13 10:06:50;;;;;;;4.47;1.10;;;20.60;65.80;;;;;;5016748;28;20045;-71
2021/09/13 10:09:17;;;;;;;4.03;1.40;;;20.50;66.30;;;;;;5031878;28;20120;-71
2021/09/13 10:11:45;;;;;;;3.15;1.25;;;20.40;66.10;;;;;;5023338;28;20094;-72
2021/09/13 10:14:15;;;;;;;3.17;1.10;;;20.40;67.10;;;;;;5021745;28;20143;-71
2021/09/13 10:16:42;;;;;;;4.68;1.40;;;20.30;68.20;;;;;;5037028;28;20136;-71
2021/09/13 10:19:16;;;;;;;5.35;1.20;;;20.30;67.30;;;;;;5025046;28;20056;-72
2021/09/13 10:21:44;;;;;;;2.85;0.93;;;20.40;68.30;;;;;;5030760;28;20041;-73
2021/09/13 10:24:13;;;;;;;5.55;2.40;;;20.30;67.80;;;;;;5035724;28;20437;-71
2021/09/13 10:27:05;;;;;;;5.55;2.35;;;20.30;66.60;;;;;;5033769;28;20496;-70
2021/09/13 10:29:32;;;;;;;3.40;1.48;;;20.30;66.40;;;;;;5035240;28;20144;-71
2021/09/13 10:32:07;;;;;;;3.55;1.48;;;20.50;65.70;;;;;;5020843;28;20045;-70
2021/09/13 10:34:36;;;;;;;7.15;2.08;;;20.70;66.00;;;;;;5007002;28;20409;-72
2021/09/13 10:37:11;;;;;;;4.85;1.27;;;20.80;66.30;;;;;;5033971;28;20132;-71
2021/09/13 10:39:56;;;;;;;5.00;1.13;;;20.90;65.30;;;;;;5039845;28;20053;-71
2021/09/13 10:42:25;;;;;;;8.30;1.30;;;20.90;64.40;;;;;;5031004;28;20061;-71
2021/09/13 10:45:05;;;;;;;3.60;1.20;;;21.10;64.70;;;;;;5040769;28;20136;-71
2021/09/13 10:47:32;;;;;;;3.72;1.05;;;21.10;64.30;;;;;;5039327;28;20147;-71
2021/09/13 10:50:16;;;;;;;6.05;1.40;;;21.10;63.90;;;;;;5039255;28;20135;-71
2021/09/13 10:52:44;;;;;;;2.88;1.25;;;20.70;64.60;;;;;;5039993;28;20053;-70
2021/09/13 10:55:16;;;;;;;4.28;1.05;;;20.60;64.20;;;;;;5037866;28;20619;-71
2021/09/13 10:58:00;;;;;;;3.78;1.35;;;20.60;64.00;;;;;;5031598;28;20079;-71
2021/09/13 11:00:38;;;;;;;3.33;1.00;;;20.90;63.60;;;;;;5038117;28;20132;-71
2021/09/13 11:03:33;;;;;;;7.03;1.48;;;21.10;63.50;;;;;;5039864;28;20052;-71
2021/09/13 11:06:17;;;;;;;2.70;1.13;;;21.30;61.70;;;;;;5038138;28;20468;-71
2021/09/13 11:08:54;;;;;;;5.60;1.50;;;21.40;62.80;;;;;;5039760;28;20349;-72
2021/09/13 11:11:33;;;;;;;4.47;1.15;;;21.50;63.10;;;;;;5037635;28;20159;-70
2021/09/13 11:14:09;;;;;;;4.35;1.20;;;21.40;61.80;;;;;;5039041;28;20579;-70
2021/09/13 11:16:41;;;;;;;3.28;1.10;;;21.40;61.80;;;;;;5039505;28;20140;-71
2021/09/13 11:19:10;;;;;;;3.67;1.20;;;21.20;62.40;;;;;;5038806;28;20081;-71
2021/09/13 11:21:42;;;;;;;3.08;0.88;;;21.20;62.90;;;;;;5039829;28;20167;-70
2021/09/13 11:24:10;;;;;;;2.47;1.20;;;21.10;62.10;;;;;;5040275;28;20132;-71
2021/09/13 11:26:50;;;;;;;3.03;1.23;;;21.20;63.00;;;;;;5039246;28;20431;-70
2021/09/13 11:29:35;;;;;;;5.20;1.48;;;21.30;62.20;;;;;;5036839;28;20536;-70
2021/09/13 11:32:17;;;;;;;4.05;1.50;;;21.40;62.20;;;;;;5039552;28;20053;-70
2021/09/13 11:34:45;;;;;;;3.78;1.00;;;21.50;62.20;;;;;;5039371;28;20060;-70
2021/09/13 11:37:29;;;;;;;4.80;1.25;;;21.70;62.60;;;;;;5039112;28;20144;-71
2021/09/13 11:40:16;;;;;;;3.95;0.98;;;21.90;58.70;;;;;;5040587;28;20053;-71
2021/09/13 11:42:42;;;;;;;3.25;1.30;;;21.90;58.90;;;;;;5038777;28;20532;-70
2021/09/13 11:45:13;;;;;;;2.60;1.33;;;22.00;59.70;;;;;;5038269;28;20600;-70
2021/09/13 11:47:55;;;;;;;2.80;1.45;;;22.10;58.90;;;;;;5037737;28;20138;-70
2021/09/13 11:50:22;;;;;;;5.15;1.40;;;21.70;59.20;;;;;;5039889;28;20577;-69
2021/09/13 11:52:49;;;;;;;5.05;1.70;;;22.00;59.20;;;;;;5039560;28;20126;-71
2021/09/13 11:55:17;;;;;;;4.90;1.90;;;22.40;60.10;;;;;;5023249;28;20053;-70
2021/09/13 11:57:53;;;;;;;3.50;1.35;;;22.80;57.70;;;;;;5025000;28;20139;-71
2021/09/13 12:00:35;;;;;;;4.20;1.17;;;23.10;55.30;;;;;;5038893;28;20484;-70
2021/09/13 12:03:05;;;;;;;1.90;1.08;;;23.10;55.20;;;;;;5039855;28;20049;-70
2021/09/13 12:05:34;;;;;;;2.20;1.23;;;23.30;55.40;;;;;;5014408;28;20258;-69
2021/09/13 12:08:01;;;;;;;2.15;1.27;;;22.80;53.90;;;;;;5037452;28;20048;-70
2021/09/13 12:10:32;;;;;;;4.97;1.50;;;22.60;56.00;;;;;;5039432;28;20132;-70
2021/09/13 12:13:07;;;;;;;3.58;1.27;;;22.90;55.30;;;;;;5030865;28;20137;-70
2021/09/13 12:15:34;;;;;;;3.22;1.10;;;23.40;54.20;;;;;;5036090;28;20095;-70
2021/09/13 12:18:08;;;;;;;2.15;1.10;;;23.10;53.20;;;;;;5027391;28;20067;-70
2021/09/13 12:20:39;;;;;;;3.50;0.93;;;22.70;53.10;;;;;;5035546;28;20065;-69
2021/09/13 12:23:09;;;;;;;5.18;1.02;;;22.50;54.60;;;;;;5006046;28;20379;-70
2021/09/13 12:25:39;;;;;;;1.67;0.80;;;22.50;54.30;;;;;;5042217;28;20044;-70
2021/09/13 12:28:06;;;;;;;2.50;1.00;;;22.50;54.30;;;;;;5039527;28;20510;-70
2021/09/13 12:30:34;;;;;;;3.42;1.02;;;22.90;54.90;;;;;;5041299;28;20132;-70
2021/09/13 12:33:07;;;;;;;2.67;1.10;;;22.70;54.00;;;;;;5024097;28;20049;-70
2021/09/13 12:35:38;;;;;;;9.90;6.82;;;22.90;55.10;;;;;;5041087;28;20139;-71
2021/09/13 12:38:08;;;;;;;11.35;7.65;;;23.10;54.10;;;;;;5032433;28;20436;-71
2021/09/13 12:40:52;;;;;;;2.50;1.40;;;22.90;53.10;;;;;;5017034;28;20203;-70
2021/09/13 12:43:28;;;;;;;3.55;1.10;;;22.50;53.50;;;;;;5036067;28;20103;-70
2021/09/13 12:46:08;;;;;;;3.55;1.08;;;22.80;55.20;;;;;;5040058;28;20105;-69
2021/09/13 12:48:37;;;;;;;5.57;1.23;;;22.90;54.40;;;;;;5040577;28;20107;-69
2021/09/13 12:51:04;;;;;;;4.15;2.72;;;22.90;55.00;;;;;;5036583;28;20237;-69
2021/09/13 12:53:31;;;;;;;3.78;2.28;;;22.50;55.50;;;;;;5037743;28;20048;-70
2021/09/13 12:56:11;;;;;;;4.25;1.65;;;22.50;55.50;;;;;;5033556;28;20049;-70
2021/09/13 12:58:38;;;;;;;2.20;1.10;;;22.50;55.80;;;;;;5037999;28;20135;-70
2021/09/13 13:01:07;;;;;;;4.68;1.15;;;22.60;55.60;;;;;;5029823;28;20496;-69